Rome Heights, Illinois
Current Conditions -  °F | °C
As of 9:10 AM on Monday 24 Nov 2014 (Local Time) from KC75 Reporting Station
Light Snow Light Snow  
Wind Chill: 22°   Ceiling: 900
Heat Index: 32°   Visibility: 1mi
Dew Point: 29°   Wind: 14mph
Humidity: 90%   Direction: 270°W
Pressure: 29.37"   Gusts: 28mph
Location:  40.915°N, 89.5303°W
Report Text: KC75 241510Z AUTO 27012G24KT 1SM -SN OVC009 00/M01 A2937 RMK AO2 T00001014
Loading
Personal Weather Stations






























Interactive Weather Map New forecast layout! Learn more

10-Day Weather Forecast

Advertisements
Track Severe Weather on mobile